sensor_id;sensor_type;location;lat;lon;timestamp;P1;durP1;ratioP1;P2;durP2;ratioP2
36009;SDS011;22076;52.182;5.404;2023-03-31T00:01:48;21.20;;;4.25;;
36009;SDS011;22076;52.182;5.404;2023-03-31T00:04:18;17.35;;;4.43;;
36009;SDS011;22076;52.182;5.404;2023-03-31T00:06:48;17.27;;;3.60;;
36009;SDS011;22076;52.182;5.404;2023-03-31T00:09:18;21.33;;;3.88;;
36009;SDS011;22076;52.182;5.404;2023-03-31T00:11:46;15.25;;;3.45;;
36009;SDS011;22076;52.182;5.404;2023-03-31T00:14:13;15.27;;;3.10;;
36009;SDS011;22076;52.182;5.404;2023-03-31T00:16:42;19.88;;;4.28;;
36009;SDS011;22076;52.182;5.404;2023-03-31T00:19:10;18.73;;;3.88;;
36009;SDS011;22076;52.182;5.404;2023-03-31T00:21:43;12.10;;;3.33;;
36009;SDS011;22076;52.182;5.404;2023-03-31T00:24:10;16.92;;;4.03;;
36009;SDS011;22076;52.182;5.404;2023-03-31T00:26:38;13.18;;;3.30;;
36009;SDS011;22076;52.182;5.404;2023-03-31T00:29:06;9.25;;;3.47;;
36009;SDS011;22076;52.182;5.404;2023-03-31T00:31:33;16.08;;;3.50;;
36009;SDS011;22076;52.182;5.404;2023-03-31T00:34:00;13.98;;;3.00;;
36009;SDS011;22076;52.182;5.404;2023-03-31T00:36:27;12.85;;;3.35;;
36009;SDS011;22076;52.182;5.404;2023-03-31T00:38:57;15.70;;;3.25;;
36009;SDS011;22076;52.182;5.404;2023-03-31T00:41:25;17.05;;;3.85;;
36009;SDS011;22076;52.182;5.404;2023-03-31T00:44:03;15.35;;;3.42;;
36009;SDS011;22076;52.182;5.404;2023-03-31T00:46:32;17.38;;;3.95;;
36009;SDS011;22076;52.182;5.404;2023-03-31T00:49:00;14.43;;;3.05;;
36009;SDS011;22076;52.182;5.404;2023-03-31T00:51:28;10.05;;;2.90;;
36009;SDS011;22076;52.182;5.404;2023-03-31T00:54:00;17.73;;;4.00;;
36009;SDS011;22076;52.182;5.404;2023-03-31T00:56:29;16.38;;;3.70;;
36009;SDS011;22076;52.182;5.404;2023-03-31T00:59:00;12.45;;;2.80;;
36009;SDS011;22076;52.182;5.404;2023-03-31T01:01:28;17.55;;;3.20;;
36009;SDS011;22076;52.182;5.404;2023-03-31T01:03:55;12.32;;;3.03;;
36009;SDS011;22076;52.182;5.404;2023-03-31T01:06:23;14.73;;;2.97;;
36009;SDS011;22076;52.182;5.404;2023-03-31T01:08:50;15.00;;;3.47;;
36009;SDS011;22076;52.182;5.404;2023-03-31T01:11:19;13.65;;;3.50;;
36009;SDS011;22076;52.182;5.404;2023-03-31T01:13:47;11.35;;;2.58;;
36009;SDS011;22076;52.182;5.404;2023-03-31T01:16:16;13.93;;;3.47;;
36009;SDS011;22076;52.182;5.404;2023-03-31T01:18:43;16.02;;;3.33;;
36009;SDS011;22076;52.182;5.404;2023-03-31T01:21:26;12.82;;;3.30;;
36009;SDS011;22076;52.182;5.404;2023-03-31T01:24:21;13.07;;;2.75;;
36009;SDS011;22076;52.182;5.404;2023-03-31T01:30:10;14.77;;;3.25;;
36009;SDS011;22076;52.182;5.404;2023-03-31T01:32:58;12.80;;;2.70;;
36009;SDS011;22076;52.182;5.404;2023-03-31T01:35:35;10.50;;;2.20;;
36009;SDS011;22076;52.182;5.404;2023-03-31T01:41:25;13.10;;;3.40;;
36009;SDS011;22076;52.182;5.404;2023-03-31T01:43:59;17.40;;;3.75;;
36009;SDS011;22076;52.182;5.404;2023-03-31T01:46:28;11.57;;;3.30;;
36009;SDS011;22076;52.182;5.404;2023-03-31T01:48:59;12.05;;;3.67;;
36009;SDS011;22076;52.182;5.404;2023-03-31T01:51:30;11.35;;;3.00;;
36009;SDS011;22076;52.182;5.404;2023-03-31T01:54:00;11.82;;;3.08;;
36009;SDS011;22076;52.182;5.404;2023-03-31T01:56:33;15.25;;;3.70;;
36009;SDS011;22076;52.182;5.404;2023-03-31T01:59:02;11.40;;;3.05;;
36009;SDS011;22076;52.182;5.404;2023-03-31T02:01:33;13.85;;;3.25;;
36009;SDS011;22076;52.182;5.404;2023-03-31T02:04:10;8.90;;;3.30;;
36009;SDS011;22076;52.182;5.404;2023-03-31T02:06:41;17.67;;;3.97;;
36009;SDS011;22076;52.182;5.404;2023-03-31T02:09:12;12.68;;;4.80;;
36009;SDS011;22076;52.182;5.404;2023-03-31T02:11:42;10.85;;;3.13;;
36009;SDS011;22076;52.182;5.404;2023-03-31T02:14:10;12.32;;;3.85;;
36009;SDS011;22076;52.182;5.404;2023-03-31T02:16:39;15.75;;;3.88;;
36009;SDS011;22076;52.182;5.404;2023-03-31T02:19:11;11.25;;;3.00;;
36009;SDS011;22076;52.182;5.404;2023-03-31T02:21:42;14.10;;;3.67;;
36009;SDS011;22076;52.182;5.404;2023-03-31T02:24:12;11.40;;;3.80;;
36009;SDS011;22076;52.182;5.404;2023-03-31T02:26:40;17.25;;;4.40;;
36009;SDS011;22076;52.182;5.404;2023-03-31T02:29:10;11.45;;;3.83;;
36009;SDS011;22076;52.182;5.404;2023-03-31T02:31:37;11.73;;;4.00;;
36009;SDS011;22076;52.182;5.404;2023-03-31T02:34:10;16.80;;;4.10;;
36009;SDS011;22076;52.182;5.404;2023-03-31T02:36:36;17.65;;;4.13;;
36009;SDS011;22076;52.182;5.404;2023-03-31T02:39:04;13.40;;;3.75;;
36009;SDS011;22076;52.182;5.404;2023-03-31T02:41:32;16.60;;;5.40;;
36009;SDS011;22076;52.182;5.404;2023-03-31T02:44:03;12.98;;;3.78;;
36009;SDS011;22076;52.182;5.404;2023-03-31T02:46:30;13.77;;;4.85;;
36009;SDS011;22076;52.182;5.404;2023-03-31T02:48:57;9.88;;;3.97;;
36009;SDS011;22076;52.182;5.404;2023-03-31T02:51:32;9.05;;;3.78;;
36009;SDS011;22076;52.182;5.404;2023-03-31T02:54:22;14.18;;;4.30;;
36009;SDS011;22076;52.182;5.404;2023-03-31T02:59:50;18.60;;;5.18;;
36009;SDS011;22076;52.182;5.404;2023-03-31T03:02:27;9.90;;;3.50;;
36009;SDS011;22076;52.182;5.404;2023-03-31T03:05:08;13.15;;;4.22;;
36009;SDS011;22076;52.182;5.404;2023-03-31T03:07:46;15.37;;;4.70;;
36009;SDS011;22076;52.182;5.404;2023-03-31T03:10:19;13.70;;;3.80;;
36009;SDS011;22076;52.182;5.404;2023-03-31T03:12:54;15.52;;;5.53;;
36009;SDS011;22076;52.182;5.404;2023-03-31T03:15:27;17.08;;;4.45;;
36009;SDS011;22076;52.182;5.404;2023-03-31T03:17:56;13.95;;;3.80;;
36009;SDS011;22076;52.182;5.404;2023-03-31T03:20:25;18.27;;;4.22;;
36009;SDS011;22076;52.182;5.404;2023-03-31T03:22:52;15.20;;;4.53;;
36009;SDS011;22076;52.182;5.404;2023-03-31T03:25:19;17.55;;;3.80;;
36009;SDS011;22076;52.182;5.404;2023-03-31T03:27:46;10.15;;;3.25;;
36009;SDS011;22076;52.182;5.404;2023-03-31T03:30:13;16.33;;;4.57;;
36009;SDS011;22076;52.182;5.404;2023-03-31T03:32:41;14.05;;;3.50;;
36009;SDS011;22076;52.182;5.404;2023-03-31T03:35:08;11.98;;;3.97;;
36009;SDS011;22076;52.182;5.404;2023-03-31T03:37:36;10.55;;;3.45;;
36009;SDS011;22076;52.182;5.404;2023-03-31T03:40:03;17.13;;;3.63;;
36009;SDS011;22076;52.182;5.404;2023-03-31T03:42:31;18.55;;;3.70;;
36009;SDS011;22076;52.182;5.404;2023-03-31T03:44:57;13.35;;;3.65;;
36009;SDS011;22076;52.182;5.404;2023-03-31T03:47:25;9.95;;;3.20;;
36009;SDS011;22076;52.182;5.404;2023-03-31T03:49:53;17.55;;;3.63;;
36009;SDS011;22076;52.182;5.404;2023-03-31T03:52:20;13.02;;;3.42;;
36009;SDS011;22076;52.182;5.404;2023-03-31T03:54:47;10.70;;;3.50;;
36009;SDS011;22076;52.182;5.404;2023-03-31T03:57:13;15.27;;;3.35;;
36009;SDS011;22076;52.182;5.404;2023-03-31T03:59:40;10.30;;;3.33;;
36009;SDS011;22076;52.182;5.404;2023-03-31T04:02:07;14.25;;;3.08;;
36009;SDS011;22076;52.182;5.404;2023-03-31T04:04:34;8.55;;;2.55;;
36009;SDS011;22076;52.182;5.404;2023-03-31T04:07:01;13.13;;;3.40;;
36009;SDS011;22076;52.182;5.404;2023-03-31T04:09:29;13.82;;;2.83;;
36009;SDS011;22076;52.182;5.404;2023-03-31T04:11:56;12.40;;;3.28;;
36009;SDS011;22076;52.182;5.404;2023-03-31T04:14:23;13.63;;;3.17;;
36009;SDS011;22076;52.182;5.404;2023-03-31T04:16:50;14.10;;;3.00;;
36009;SDS011;22076;52.182;5.404;2023-03-31T04:19:16;20.17;;;3.22;;
36009;SDS011;22076;52.182;5.404;2023-03-31T04:21:45;12.75;;;3.42;;
36009;SDS011;22076;52.182;5.404;2023-03-31T04:24:16;10.57;;;2.88;;
36009;SDS011;22076;52.182;5.404;2023-03-31T04:26:45;10.77;;;2.63;;
36009;SDS011;22076;52.182;5.404;2023-03-31T04:29:15;10.75;;;2.67;;
36009;SDS011;22076;52.182;5.404;2023-03-31T04:31:43;7.65;;;1.95;;
36009;SDS011;22076;52.182;5.404;2023-03-31T04:34:11;6.55;;;1.98;;
36009;SDS011;22076;52.182;5.404;2023-03-31T04:36:39;7.53;;;2.03;;
36009;SDS011;22076;52.182;5.404;2023-03-31T04:39:11;10.00;;;2.35;;
36009;SDS011;22076;52.182;5.404;2023-03-31T04:41:39;11.02;;;2.20;;
36009;SDS011;22076;52.182;5.404;2023-03-31T04:44:06;8.68;;;2.10;;
36009;SDS011;22076;52.182;5.404;2023-03-31T04:46:33;8.55;;;1.95;;
36009;SDS011;22076;52.182;5.404;2023-03-31T04:49:00;8.82;;;2.20;;
36009;SDS011;22076;52.182;5.404;2023-03-31T04:51:27;9.93;;;2.97;;
36009;SDS011;22076;52.182;5.404;2023-03-31T04:53:54;15.13;;;2.90;;
36009;SDS011;22076;52.182;5.404;2023-03-31T04:56:20;11.60;;;3.20;;
36009;SDS011;22076;52.182;5.404;2023-03-31T04:58:49;13.55;;;3.20;;
36009;SDS011;22076;52.182;5.404;2023-03-31T05:01:15;14.00;;;3.00;;
36009;SDS011;22076;52.182;5.404;2023-03-31T05:03:43;13.95;;;3.45;;
36009;SDS011;22076;52.182;5.404;2023-03-31T05:06:11;7.88;;;2.95;;
36009;SDS011;22076;52.182;5.404;2023-03-31T05:08:38;8.93;;;3.92;;
36009;SDS011;22076;52.182;5.404;2023-03-31T05:11:04;9.90;;;3.28;;
36009;SDS011;22076;52.182;5.404;2023-03-31T05:13:31;17.80;;;3.72;;
36009;SDS011;22076;52.182;5.404;2023-03-31T05:16:00;9.90;;;4.03;;
36009;SDS011;22076;52.182;5.404;2023-03-31T05:21:04;13.13;;;3.42;;
36009;SDS011;22076;52.182;5.404;2023-03-31T05:23:34;15.05;;;4.75;;
36009;SDS011;22076;52.182;5.404;2023-03-31T05:26:00;19.88;;;4.80;;
36009;SDS011;22076;52.182;5.404;2023-03-31T05:28:27;16.80;;;3.97;;
36009;SDS011;22076;52.182;5.404;2023-03-31T05:30:53;18.83;;;4.75;;
36009;SDS011;22076;52.182;5.404;2023-03-31T05:33:21;15.68;;;4.50;;
36009;SDS011;22076;52.182;5.404;2023-03-31T05:35:48;14.82;;;3.97;;
36009;SDS011;22076;52.182;5.404;2023-03-31T05:38:14;14.20;;;4.53;;
36009;SDS011;22076;52.182;5.404;2023-03-31T05:40:41;16.95;;;4.47;;
36009;SDS011;22076;52.182;5.404;2023-03-31T05:43:08;15.57;;;4.25;;
36009;SDS011;22076;52.182;5.404;2023-03-31T05:45:34;12.63;;;5.38;;
36009;SDS011;22076;52.182;5.404;2023-03-31T05:48:01;9.70;;;3.78;;
36009;SDS011;22076;52.182;5.404;2023-03-31T05:50:29;12.40;;;3.85;;
36009;SDS011;22076;52.182;5.404;2023-03-31T05:52:57;9.45;;;3.72;;
36009;SDS011;22076;52.182;5.404;2023-03-31T05:55:24;7.90;;;3.75;;
36009;SDS011;22076;52.182;5.404;2023-03-31T05:57:51;11.55;;;3.28;;
36009;SDS011;22076;52.182;5.404;2023-03-31T06:00:18;8.88;;;3.70;;
36009;SDS011;22076;52.182;5.404;2023-03-31T06:02:46;13.57;;;4.10;;
36009;SDS011;22076;52.182;5.404;2023-03-31T06:05:12;10.55;;;3.53;;
36009;SDS011;22076;52.182;5.404;2023-03-31T06:07:41;11.40;;;3.53;;
36009;SDS011;22076;52.182;5.404;2023-03-31T06:10:08;11.75;;;3.42;;
36009;SDS011;22076;52.182;5.404;2023-03-31T06:12:34;14.05;;;3.47;;
36009;SDS011;22076;52.182;5.404;2023-03-31T06:15:01;15.95;;;2.95;;
36009;SDS011;22076;52.182;5.404;2023-03-31T06:17:28;11.23;;;3.78;;
36009;SDS011;22076;52.182;5.404;2023-03-31T06:19:54;13.80;;;3.80;;
36009;SDS011;22076;52.182;5.404;2023-03-31T06:22:21;11.52;;;3.17;;
36009;SDS011;22076;52.182;5.404;2023-03-31T06:24:49;9.20;;;3.15;;
36009;SDS011;22076;52.182;5.404;2023-03-31T06:27:17;12.15;;;3.17;;
36009;SDS011;22076;52.182;5.404;2023-03-31T06:29:43;9.00;;;2.90;;
36009;SDS011;22076;52.182;5.404;2023-03-31T06:32:10;10.30;;;3.42;;
36009;SDS011;22076;52.182;5.404;2023-03-31T06:34:36;12.88;;;2.90;;
36009;SDS011;22076;52.182;5.404;2023-03-31T06:37:03;16.15;;;3.00;;
36009;SDS011;22076;52.182;5.404;2023-03-31T06:39:30;10.95;;;2.55;;
36009;SDS011;22076;52.182;5.404;2023-03-31T06:41:58;8.07;;;2.80;;
36009;SDS011;22076;52.182;5.404;2023-03-31T06:44:24;9.00;;;2.40;;
36009;SDS011;22076;52.182;5.404;2023-03-31T06:46:51;9.18;;;2.30;;
36009;SDS011;22076;52.182;5.404;2023-03-31T06:49:17;11.15;;;2.60;;
36009;SDS011;22076;52.182;5.404;2023-03-31T06:51:44;11.32;;;2.70;;
36009;SDS011;22076;52.182;5.404;2023-03-31T06:54:10;11.95;;;2.67;;
36009;SDS011;22076;52.182;5.404;2023-03-31T06:56:37;6.93;;;2.08;;
36009;SDS011;22076;52.182;5.404;2023-03-31T06:59:05;7.32;;;2.33;;
36009;SDS011;22076;52.182;5.404;2023-03-31T07:01:31;6.25;;;2.47;;
36009;SDS011;22076;52.182;5.404;2023-03-31T07:04:01;8.10;;;2.40;;
36009;SDS011;22076;52.182;5.404;2023-03-31T07:06:28;11.90;;;2.45;;
36009;SDS011;22076;52.182;5.404;2023-03-31T07:08:55;8.10;;;2.10;;
36009;SDS011;22076;52.182;5.404;2023-03-31T07:11:22;5.72;;;2.20;;
36009;SDS011;22076;52.182;5.404;2023-03-31T07:13:48;9.45;;;2.08;;
36009;SDS011;22076;52.182;5.404;2023-03-31T07:16:16;7.15;;;1.77;;
36009;SDS011;22076;52.182;5.404;2023-03-31T07:18:43;6.85;;;1.80;;
36009;SDS011;22076;52.182;5.404;2023-03-31T07:21:10;5.07;;;1.63;;
36009;SDS011;22076;52.182;5.404;2023-03-31T07:23:37;6.78;;;1.38;;
36009;SDS011;22076;52.182;5.404;2023-03-31T07:26:04;7.13;;;1.92;;
36009;SDS011;22076;52.182;5.404;2023-03-31T07:28:34;3.80;;;1.70;;
36009;SDS011;22076;52.182;5.404;2023-03-31T07:31:01;8.48;;;2.05;;
36009;SDS011;22076;52.182;5.404;2023-03-31T07:33:31;8.57;;;1.73;;
36009;SDS011;22076;52.182;5.404;2023-03-31T07:35:58;4.93;;;1.73;;
36009;SDS011;22076;52.182;5.404;2023-03-31T07:38:29;5.75;;;1.60;;
36009;SDS011;22076;52.182;5.404;2023-03-31T07:40:57;8.23;;;1.63;;
36009;SDS011;22076;52.182;5.404;2023-03-31T07:43:24;11.00;;;2.17;;
36009;SDS011;22076;52.182;5.404;2023-03-31T07:45:50;6.25;;;1.98;;
36009;SDS011;22076;52.182;5.404;2023-03-31T07:48:17;7.28;;;1.92;;
36009;SDS011;22076;52.182;5.404;2023-03-31T07:50:54;6.28;;;2.03;;
36009;SDS011;22076;52.182;5.404;2023-03-31T07:53:21;6.97;;;1.60;;
36009;SDS011;22076;52.182;5.404;2023-03-31T07:55:47;7.68;;;2.10;;
36009;SDS011;22076;52.182;5.404;2023-03-31T07:58:21;6.82;;;2.30;;
36009;SDS011;22076;52.182;5.404;2023-03-31T08:00:48;9.45;;;2.45;;
36009;SDS011;22076;52.182;5.404;2023-03-31T08:03:14;6.40;;;2.40;;
36009;SDS011;22076;52.182;5.404;2023-03-31T08:05:41;9.18;;;2.15;;
36009;SDS011;22076;52.182;5.404;2023-03-31T08:08:19;6.68;;;2.33;;
36009;SDS011;22076;52.182;5.404;2023-03-31T08:10:46;4.70;;;2.25;;
36009;SDS011;22076;52.182;5.404;2023-03-31T08:13:13;9.15;;;1.77;;
36009;SDS011;22076;52.182;5.404;2023-03-31T08:15:40;17.23;;;3.30;;
36009;SDS011;22076;52.182;5.404;2023-03-31T08:18:11;8.77;;;2.78;;
36009;SDS011;22076;52.182;5.404;2023-03-31T08:20:38;12.70;;;2.63;;
36009;SDS011;22076;52.182;5.404;2023-03-31T08:23:05;6.13;;;2.05;;
36009;SDS011;22076;52.182;5.404;2023-03-31T08:25:43;7.75;;;2.92;;
36009;SDS011;22076;52.182;5.404;2023-03-31T08:28:11;11.20;;;2.65;;
36009;SDS011;22076;52.182;5.404;2023-03-31T08:30:41;14.57;;;2.83;;
36009;SDS011;22076;52.182;5.404;2023-03-31T08:33:20;10.13;;;3.03;;
36009;SDS011;22076;52.182;5.404;2023-03-31T08:35:47;7.78;;;2.95;;
36009;SDS011;22076;52.182;5.404;2023-03-31T08:38:29;9.85;;;3.17;;
36009;SDS011;22076;52.182;5.404;2023-03-31T08:41:00;8.10;;;3.28;;
36009;SDS011;22076;52.182;5.404;2023-03-31T08:43:35;9.27;;;3.30;;
36009;SDS011;22076;52.182;5.404;2023-03-31T08:46:05;10.32;;;3.95;;
36009;SDS011;22076;52.182;5.404;2023-03-31T08:48:36;12.52;;;3.85;;
36009;SDS011;22076;52.182;5.404;2023-03-31T08:51:11;11.65;;;3.67;;
36009;SDS011;22076;52.182;5.404;2023-03-31T08:53:41;7.25;;;2.47;;
36009;SDS011;22076;52.182;5.404;2023-03-31T08:56:13;7.05;;;2.65;;
36009;SDS011;22076;52.182;5.404;2023-03-31T08:58:42;11.13;;;2.95;;
36009;SDS011;22076;52.182;5.404;2023-03-31T09:01:13;15.43;;;4.13;;
36009;SDS011;22076;52.182;5.404;2023-03-31T09:03:48;11.85;;;3.70;;
36009;SDS011;22076;52.182;5.404;2023-03-31T09:06:22;12.38;;;4.22;;
36009;SDS011;22076;52.182;5.404;2023-03-31T09:08:52;18.13;;;4.65;;
36009;SDS011;22076;52.182;5.404;2023-03-31T09:11:28;16.65;;;4.18;;
36009;SDS011;22076;52.182;5.404;2023-03-31T09:14:04;20.15;;;4.93;;
36009;SDS011;22076;52.182;5.404;2023-03-31T09:16:37;15.02;;;4.85;;
36009;SDS011;22076;52.182;5.404;2023-03-31T09:19:10;18.90;;;4.57;;
36009;SDS011;22076;52.182;5.404;2023-03-31T09:21:41;22.55;;;5.15;;
36009;SDS011;22076;52.182;5.404;2023-03-31T09:24:10;24.58;;;5.07;;
36009;SDS011;22076;52.182;5.404;2023-03-31T09:26:41;22.60;;;5.90;;
36009;SDS011;22076;52.182;5.404;2023-03-31T09:29:11;19.15;;;4.43;;
36009;SDS011;22076;52.182;5.404;2023-03-31T09:31:43;21.33;;;4.75;;
36009;SDS011;22076;52.182;5.404;2023-03-31T09:34:12;19.75;;;5.20;;
36009;SDS011;22076;52.182;5.404;2023-03-31T09:36:40;20.00;;;5.43;;
36009;SDS011;22076;52.182;5.404;2023-03-31T09:39:08;18.75;;;5.50;;
36009;SDS011;22076;52.182;5.404;2023-03-31T09:41:37;27.13;;;5.32;;
36009;SDS011;22076;52.182;5.404;2023-03-31T09:44:09;18.50;;;5.15;;
36009;SDS011;22076;52.182;5.404;2023-03-31T09:46:41;33.10;;;6.07;;
36009;SDS011;22076;52.182;5.404;2023-03-31T09:49:09;24.25;;;4.78;;
36009;SDS011;22076;52.182;5.404;2023-03-31T09:51:37;23.15;;;4.32;;
36009;SDS011;22076;52.182;5.404;2023-03-31T09:54:08;15.52;;;4.70;;
36009;SDS011;22076;52.182;5.404;2023-03-31T09:56:45;13.38;;;3.67;;
36009;SDS011;22076;52.182;5.404;2023-03-31T09:59:16;32.08;;;5.93;;
36009;SDS011;22076;52.182;5.404;2023-03-31T10:01:44;19.75;;;5.35;;
36009;SDS011;22076;52.182;5.404;2023-03-31T10:04:17;26.25;;;4.78;;
36009;SDS011;22076;52.182;5.404;2023-03-31T10:06:46;19.05;;;4.43;;
36009;SDS011;22076;52.182;5.404;2023-03-31T10:09:14;24.63;;;4.82;;
36009;SDS011;22076;52.182;5.404;2023-03-31T10:11:50;21.75;;;4.55;;
36009;SDS011;22076;52.182;5.404;2023-03-31T10:14:22;31.42;;;5.78;;
36009;SDS011;22076;52.182;5.404;2023-03-31T10:16:52;14.27;;;3.60;;
36009;SDS011;22076;52.182;5.404;2023-03-31T10:19:20;15.95;;;4.20;;
36009;SDS011;22076;52.182;5.404;2023-03-31T10:21:48;23.67;;;5.00;;
36009;SDS011;22076;52.182;5.404;2023-03-31T10:24:21;16.65;;;4.78;;
36009;SDS011;22076;52.182;5.404;2023-03-31T10:26:48;17.00;;;4.43;;
36009;SDS011;22076;52.182;5.404;2023-03-31T10:29:20;28.67;;;5.60;;
36009;SDS011;22076;52.182;5.404;2023-03-31T10:31:49;22.05;;;4.63;;
36009;SDS011;22076;52.182;5.404;2023-03-31T10:34:18;16.58;;;3.60;;
36009;SDS011;22076;52.182;5.404;2023-03-31T10:36:46;14.32;;;3.40;;
36009;SDS011;22076;52.182;5.404;2023-03-31T10:39:16;20.38;;;4.28;;
36009;SDS011;22076;52.182;5.404;2023-03-31T10:41:47;22.92;;;3.97;;
36009;SDS011;22076;52.182;5.404;2023-03-31T10:47:03;11.57;;;3.92;;
36009;SDS011;22076;52.182;5.404;2023-03-31T10:49:38;10.68;;;3.22;;
36009;SDS011;22076;52.182;5.404;2023-03-31T10:52:13;17.58;;;4.50;;
36009;SDS011;22076;52.182;5.404;2023-03-31T10:54:45;22.92;;;4.85;;
36009;SDS011;22076;52.182;5.404;2023-03-31T10:57:16;17.83;;;3.75;;
36009;SDS011;22076;52.182;5.404;2023-03-31T10:59:51;14.73;;;4.00;;
36009;SDS011;22076;52.182;5.404;2023-03-31T11:05:18;15.68;;;3.22;;
36009;SDS011;22076;52.182;5.404;2023-03-31T11:07:51;14.45;;;3.78;;
36009;SDS011;22076;52.182;5.404;2023-03-31T11:10:31;23.55;;;4.03;;
36009;SDS011;22076;52.182;5.404;2023-03-31T11:13:03;11.43;;;2.83;;
36009;SDS011;22076;52.182;5.404;2023-03-31T11:15:36;14.07;;;3.15;;
36009;SDS011;22076;52.182;5.404;2023-03-31T11:20:39;18.13;;;3.30;;
36009;SDS011;22076;52.182;5.404;2023-03-31T11:23:28;17.10;;;4.20;;
36009;SDS011;22076;52.182;5.404;2023-03-31T11:26:03;14.43;;;3.42;;
36009;SDS011;22076;52.182;5.404;2023-03-31T11:28:34;19.58;;;4.35;;
36009;SDS011;22076;52.182;5.404;2023-03-31T11:31:18;23.98;;;3.95;;
36009;SDS011;22076;52.182;5.404;2023-03-31T11:33:56;17.50;;;3.70;;
36009;SDS011;22076;52.182;5.404;2023-03-31T11:36:34;15.77;;;2.95;;
36009;SDS011;22076;52.182;5.404;2023-03-31T11:39:14;16.77;;;2.97;;
36009;SDS011;22076;52.182;5.404;2023-03-31T11:41:48;14.75;;;3.42;;
36009;SDS011;22076;52.182;5.404;2023-03-31T11:44:17;12.75;;;2.90;;
36009;SDS011;22076;52.182;5.404;2023-03-31T11:46:47;14.30;;;3.45;;
36009;SDS011;22076;52.182;5.404;2023-03-31T11:49:17;12.82;;;3.35;;
36009;SDS011;22076;52.182;5.404;2023-03-31T11:51:47;17.45;;;3.30;;
36009;SDS011;22076;52.182;5.404;2023-03-31T11:54:17;15.18;;;3.30;;
36009;SDS011;22076;52.182;5.404;2023-03-31T11:56:47;19.02;;;3.55;;
36009;SDS011;22076;52.182;5.404;2023-03-31T11:59:14;13.20;;;3.10;;
36009;SDS011;22076;52.182;5.404;2023-03-31T12:01:41;9.68;;;2.70;;
36009;SDS011;22076;52.182;5.404;2023-03-31T12:04:15;13.55;;;2.97;;
36009;SDS011;22076;52.182;5.404;2023-03-31T12:06:47;20.00;;;3.20;;
36009;SDS011;22076;52.182;5.404;2023-03-31T12:09:16;14.48;;;3.25;;
36009;SDS011;22076;52.182;5.404;2023-03-31T12:14:21;10.50;;;2.53;;
36009;SDS011;22076;52.182;5.404;2023-03-31T12:16:51;16.52;;;3.10;;
36009;SDS011;22076;52.182;5.404;2023-03-31T12:19:22;20.58;;;2.90;;
36009;SDS011;22076;52.182;5.404;2023-03-31T12:21:52;18.63;;;3.15;;
36009;SDS011;22076;52.182;5.404;2023-03-31T12:24:20;16.95;;;3.20;;
36009;SDS011;22076;52.182;5.404;2023-03-31T12:26:49;8.80;;;2.53;;
36009;SDS011;22076;52.182;5.404;2023-03-31T12:29:25;13.00;;;2.67;;
36009;SDS011;22076;52.182;5.404;2023-03-31T12:31:53;10.50;;;2.55;;
36009;SDS011;22076;52.182;5.404;2023-03-31T12:34:23;16.52;;;2.80;;
36009;SDS011;22076;52.182;5.404;2023-03-31T12:39:38;20.13;;;3.47;;
36009;SDS011;22076;52.182;5.404;2023-03-31T12:42:32;17.65;;;3.42;;
36009;SDS011;22076;52.182;5.404;2023-03-31T12:45:05;21.42;;;3.65;;
36009;SDS011;22076;52.182;5.404;2023-03-31T12:47:49;18.27;;;3.42;;
36009;SDS011;22076;52.182;5.404;2023-03-31T12:50:29;22.45;;;3.17;;
36009;SDS011;22076;52.182;5.404;2023-03-31T12:53:02;13.52;;;2.88;;
36009;SDS011;22076;52.182;5.404;2023-03-31T12:55:35;17.45;;;4.07;;
36009;SDS011;22076;52.182;5.404;2023-03-31T13:01:11;17.85;;;4.25;;
36009;SDS011;22076;52.182;5.404;2023-03-31T13:03:50;15.63;;;3.15;;
36009;SDS011;22076;52.182;5.404;2023-03-31T13:06:51;14.82;;;3.60;;
36009;SDS011;22076;52.182;5.404;2023-03-31T13:12:14;12.10;;;3.22;;
36009;SDS011;22076;52.182;5.404;2023-03-31T13:14:43;17.07;;;3.63;;
36009;SDS011;22076;52.182;5.404;2023-03-31T13:17:11;21.60;;;4.25;;
36009;SDS011;22076;52.182;5.404;2023-03-31T13:19:43;14.18;;;3.30;;
36009;SDS011;22076;52.182;5.404;2023-03-31T13:22:26;19.83;;;4.10;;
36009;SDS011;22076;52.182;5.404;2023-03-31T13:25:08;13.23;;;3.05;;
36009;SDS011;22076;52.182;5.404;2023-03-31T13:31:00;14.15;;;3.20;;
36009;SDS011;22076;52.182;5.404;2023-03-31T13:33:32;9.55;;;2.90;;
36009;SDS011;22076;52.182;5.404;2023-03-31T13:36:07;18.63;;;3.55;;
36009;SDS011;22076;52.182;5.404;2023-03-31T13:38:44;15.93;;;3.03;;
36009;SDS011;22076;52.182;5.404;2023-03-31T13:41:20;16.90;;;3.35;;
36009;SDS011;22076;52.182;5.404;2023-03-31T13:46:46;11.50;;;3.13;;
36009;SDS011;22076;52.182;5.404;2023-03-31T13:52:13;8.30;;;2.58;;
36009;SDS011;22076;52.182;5.404;2023-03-31T13:55:04;13.27;;;2.50;;
36009;SDS011;22076;52.182;5.404;2023-03-31T14:00:41;15.82;;;2.90;;
36009;SDS011;22076;52.182;5.404;2023-03-31T14:03:16;15.82;;;3.92;;
36009;SDS011;22076;52.182;5.404;2023-03-31T14:05:49;14.88;;;3.67;;
36009;SDS011;22076;52.182;5.404;2023-03-31T14:08:23;19.73;;;3.80;;
36009;SDS011;22076;52.182;5.404;2023-03-31T14:10:56;18.05;;;4.07;;
36009;SDS011;22076;52.182;5.404;2023-03-31T14:13:41;13.13;;;3.15;;
36009;SDS011;22076;52.182;5.404;2023-03-31T14:16:08;18.63;;;4.13;;
36009;SDS011;22076;52.182;5.404;2023-03-31T14:18:36;15.90;;;2.80;;
36009;SDS011;22076;52.182;5.404;2023-03-31T14:21:07;12.30;;;2.75;;
36009;SDS011;22076;52.182;5.404;2023-03-31T14:23:40;8.48;;;2.17;;
36009;SDS011;22076;52.182;5.404;2023-03-31T14:26:17;8.90;;;2.08;;
36009;SDS011;22076;52.182;5.404;2023-03-31T14:29:04;9.90;;;2.67;;
36009;SDS011;22076;52.182;5.404;2023-03-31T14:31:37;10.50;;;2.90;;
36009;SDS011;22076;52.182;5.404;2023-03-31T14:34:10;14.98;;;2.67;;
36009;SDS011;22076;52.182;5.404;2023-03-31T14:36:50;8.70;;;2.53;;
36009;SDS011;22076;52.182;5.404;2023-03-31T14:39:22;15.13;;;3.72;;
36009;SDS011;22076;52.182;5.404;2023-03-31T14:41:53;10.65;;;3.35;;
36009;SDS011;22076;52.182;5.404;2023-03-31T14:44:20;9.63;;;2.85;;
36009;SDS011;22076;52.182;5.404;2023-03-31T14:46:48;9.90;;;2.90;;
36009;SDS011;22076;52.182;5.404;2023-03-31T14:49:17;13.98;;;2.58;;
36009;SDS011;22076;52.182;5.404;2023-03-31T14:51:46;13.60;;;3.05;;
36009;SDS011;22076;52.182;5.404;2023-03-31T14:54:16;12.30;;;2.95;;
36009;SDS011;22076;52.182;5.404;2023-03-31T14:56:44;9.05;;;2.97;;
36009;SDS011;22076;52.182;5.404;2023-03-31T14:59:14;8.93;;;2.70;;
36009;SDS011;22076;52.182;5.404;2023-03-31T15:01:49;5.20;;;2.00;;
36009;SDS011;22076;52.182;5.404;2023-03-31T15:04:16;10.65;;;2.55;;
36009;SDS011;22076;52.182;5.404;2023-03-31T15:06:45;6.32;;;2.20;;
36009;SDS011;22076;52.182;5.404;2023-03-31T15:09:15;6.15;;;2.10;;
36009;SDS011;22076;52.182;5.404;2023-03-31T15:11:44;7.63;;;2.30;;
36009;SDS011;22076;52.182;5.404;2023-03-31T15:14:11;7.10;;;2.20;;
36009;SDS011;22076;52.182;5.404;2023-03-31T15:16:40;8.75;;;2.15;;
36009;SDS011;22076;52.182;5.404;2023-03-31T15:19:12;8.63;;;2.25;;
36009;SDS011;22076;52.182;5.404;2023-03-31T15:21:40;7.53;;;2.70;;
36009;SDS011;22076;52.182;5.404;2023-03-31T15:24:09;3.90;;;2.25;;
36009;SDS011;22076;52.182;5.404;2023-03-31T15:26:37;8.23;;;2.80;;
36009;SDS011;22076;52.182;5.404;2023-03-31T15:29:06;9.07;;;2.78;;
36009;SDS011;22076;52.182;5.404;2023-03-31T15:31:34;5.40;;;1.85;;
36009;SDS011;22076;52.182;5.404;2023-03-31T15:34:12;7.53;;;3.13;;
36009;SDS011;22076;52.182;5.404;2023-03-31T15:36:40;8.13;;;2.90;;
36009;SDS011;22076;52.182;5.404;2023-03-31T15:39:07;8.07;;;2.35;;
36009;SDS011;22076;52.182;5.404;2023-03-31T15:41:34;5.00;;;2.30;;